createdAt,value
2022-07-29T00:11:10.045Z,22.70
2022-07-29T00:13:37.379Z,22.60
2022-07-29T00:16:05.317Z,22.60
2022-07-29T00:18:33.172Z,22.70
2022-07-29T00:21:00.912Z,22.80
2022-07-29T00:23:28.188Z,22.80
2022-07-29T00:25:55.449Z,22.60
2022-07-29T00:28:22.763Z,22.60
2022-07-29T00:30:50.061Z,22.70
2022-07-29T00:33:17.413Z,22.60
2022-07-29T00:35:44.691Z,22.50
2022-07-29T00:38:13.021Z,22.50
2022-07-29T00:40:40.435Z,22.50
2022-07-29T00:43:12.306Z,22.50
2022-07-29T00:45:39.627Z,22.50
2022-07-29T00:48:07.602Z,22.40
2022-07-29T00:50:35.771Z,22.40
2022-07-29T00:53:04.306Z,22.40
2022-07-29T00:55:32.060Z,22.40
2022-07-29T00:57:59.582Z,22.40
2022-07-29T01:00:28.125Z,22.50
2022-07-29T01:02:55.461Z,22.50
2022-07-29T01:05:24.119Z,22.50
2022-07-29T01:07:53.290Z,22.50
2022-07-29T01:10:21.301Z,22.40
2022-07-29T01:12:50.076Z,22.40
2022-07-29T01:15:17.415Z,22.30
2022-07-29T01:17:52.491Z,22.30
2022-07-29T01:20:32.859Z,22.20
2022-07-29T01:23:26.089Z,22.20
2022-07-29T01:26:20.388Z,22.20
2022-07-29T01:28:50.975Z,22.20
2022-07-29T01:31:25.004Z,22.20
2022-07-29T01:33:56.154Z,22.10
2022-07-29T01:36:44.079Z,22.00
2022-07-29T01:39:13.362Z,22.00
2022-07-29T01:41:45.272Z,22.00
2022-07-29T01:44:21.071Z,22.00
2022-07-29T01:46:52.069Z,21.90
2022-07-29T01:49:21.681Z,21.80
2022-07-29T01:51:51.581Z,21.80
2022-07-29T01:54:31.689Z,21.90
2022-07-29T01:57:00.544Z,22.00
2022-07-29T01:59:28.705Z,22.00
2022-07-29T02:01:57.719Z,21.90
2022-07-29T02:04:29.945Z,21.80
2022-07-29T02:06:59.909Z,21.80
2022-07-29T02:09:27.755Z,21.70
2022-07-29T02:11:56.234Z,21.60
2022-07-29T02:14:24.159Z,21.50
2022-07-29T02:16:54.721Z,21.40
2022-07-29T02:19:23.304Z,21.40
2022-07-29T02:21:51.132Z,21.40
2022-07-29T02:24:19.842Z,21.50
2022-07-29T02:26:48.354Z,21.40
2022-07-29T02:29:15.892Z,21.30
2022-07-29T02:31:44.669Z,21.20
2022-07-29T02:34:13.142Z,21.30
2022-07-29T02:36:41.545Z,21.40
2022-07-29T02:39:10.769Z,21.30
2022-07-29T02:41:42.412Z,21.30
2022-07-29T02:44:14.605Z,21.20
2022-07-29T02:46:51.159Z,21.20
2022-07-29T02:49:33.673Z,21.10
2022-07-29T02:52:09.692Z,21.10
2022-07-29T02:54:51.926Z,21.10
2022-07-29T02:57:26.483Z,21.20
2022-07-29T02:59:54.037Z,21.20
2022-07-29T03:02:21.715Z,21.20
2022-07-29T03:04:50.272Z,21.20
2022-07-29T03:07:19.826Z,21.20
2022-07-29T03:09:47.391Z,21.20
2022-07-29T03:12:15.413Z,21.10
2022-07-29T03:14:43.508Z,21.00
2022-07-29T03:17:11.053Z,21.00
2022-07-29T03:19:38.525Z,21.00
2022-07-29T03:22:05.877Z,21.00
2022-07-29T03:24:34.179Z,21.00
2022-07-29T03:27:02.177Z,21.00
2022-07-29T03:29:33.865Z,20.90
2022-07-29T03:32:07.882Z,20.90
2022-07-29T03:34:36.756Z,20.90
2022-07-29T03:37:04.061Z,21.00
2022-07-29T03:39:34.042Z,20.90
2022-07-29T03:42:02.020Z,21.00
2022-07-29T03:44:30.251Z,21.10
2022-07-29T03:46:59.548Z,21.10
2022-07-29T03:49:27.720Z,21.10
2022-07-29T03:51:55.400Z,21.00
2022-07-29T03:54:23.186Z,21.20
2022-07-29T03:56:51.335Z,21.10
2022-07-29T03:59:20.432Z,21.20
2022-07-29T04:01:48.933Z,21.20
2022-07-29T04:04:16.920Z,21.30
2022-07-29T04:06:45.740Z,21.30
2022-07-29T04:09:15.516Z,21.30
2022-07-29T04:11:59.262Z,21.30
2022-07-29T04:14:31.886Z,21.20
2022-07-29T04:16:59.282Z,21.20
2022-07-29T04:19:26.785Z,21.10
2022-07-29T04:21:54.027Z,21.20
2022-07-29T04:24:21.296Z,21.30
2022-07-29T04:26:48.905Z,21.50
2022-07-29T04:29:16.196Z,21.60
2022-07-29T04:31:43.932Z,21.60
2022-07-29T04:34:11.398Z,21.80
2022-07-29T04:36:38.689Z,21.90
2022-07-29T04:39:06.189Z,22.00
2022-07-29T04:41:34.507Z,22.00
2022-07-29T04:44:06.921Z,22.20
2022-07-29T04:46:39.685Z,22.30
2022-07-29T04:49:06.999Z,22.50
2022-07-29T04:51:34.507Z,22.50
2022-07-29T04:54:01.773Z,22.50
2022-07-29T04:56:28.981Z,22.40
2022-07-29T04:58:56.255Z,22.60
2022-07-29T05:01:23.502Z,22.80
2022-07-29T05:03:50.762Z,22.80
2022-07-29T05:06:18.057Z,22.80
2022-07-29T05:08:45.306Z,22.80
2022-07-29T05:11:16.956Z,23.00
2022-07-29T05:13:47.213Z,23.00
2022-07-29T05:16:14.981Z,23.10
2022-07-29T05:18:43.152Z,23.20
2022-07-29T05:21:10.615Z,23.40
2022-07-29T05:23:37.830Z,23.40
2022-07-29T05:26:05.148Z,23.50
2022-07-29T05:28:36.120Z,23.60
2022-07-29T05:31:03.611Z,23.80
2022-07-29T05:33:36.105Z,23.80
2022-07-29T05:36:08.230Z,23.60
2022-07-29T05:38:36.497Z,23.70
2022-07-29T05:41:04.230Z,25.00
2022-07-29T05:43:31.645Z,26.10
2022-07-29T05:45:59.138Z,27.30
2022-07-29T05:48:26.503Z,27.80
2022-07-29T05:50:53.791Z,28.50
2022-07-29T05:53:21.293Z,28.10
2022-07-29T05:55:49.278Z,28.80
2022-07-29T05:58:16.584Z,28.40
2022-07-29T06:00:44.060Z,28.40
2022-07-29T06:03:11.593Z,28.50
2022-07-29T06:05:38.894Z,28.10
2022-07-29T06:08:08.980Z,28.40
2022-07-29T06:10:36.514Z,28.40
2022-07-29T06:13:03.951Z,28.40
2022-07-29T06:15:31.324Z,28.30
2022-07-29T06:18:00.702Z,29.20
2022-07-29T06:20:30.862Z,29.20
2022-07-29T06:40:55.454Z,30.30
2022-07-29T06:50:45.463Z,31.50
2022-07-29T06:53:12.658Z,31.10
2022-07-29T06:55:40.086Z,31.00
2022-07-29T06:58:08.736Z,31.10
2022-07-29T07:00:36.286Z,30.80
2022-07-29T07:03:03.630Z,30.60
2022-07-29T07:05:30.894Z,29.80
2022-07-29T07:07:58.110Z,29.40
2022-07-29T07:10:25.475Z,29.30
2022-07-29T07:12:52.868Z,28.70
2022-07-29T07:15:22.817Z,29.10
2022-07-29T07:18:09.643Z,30.00
2022-07-29T07:20:37.648Z,29.60
2022-07-29T07:23:05.616Z,29.40
2022-07-29T07:25:32.851Z,30.40
2022-07-29T07:28:00.077Z,31.00
2022-07-29T07:30:28.204Z,31.20
2022-07-29T07:32:56.298Z,31.40
2022-07-29T07:35:23.577Z,31.30
2022-07-29T07:37:50.786Z,31.40
2022-07-29T07:40:18.563Z,31.60
2022-07-29T07:42:46.168Z,31.60
2022-07-29T07:45:15.948Z,31.70
2022-07-29T07:47:44.047Z,31.30
2022-07-29T07:50:18.056Z,31.50
2022-07-29T07:52:50.210Z,31.00
2022-07-29T07:55:17.734Z,31.10
2022-07-29T07:57:45.681Z,31.70
2022-07-29T08:00:14.161Z,32.00
2022-07-29T08:02:41.739Z,32.00
2022-07-29T08:05:12.674Z,32.40
2022-07-29T08:07:40.488Z,32.90
2022-07-29T08:10:08.228Z,32.50
2022-07-29T08:12:35.866Z,32.30
2022-07-29T08:15:03.262Z,32.70
2022-07-29T08:17:30.717Z,32.60
2022-07-29T08:20:03.656Z,32.50
2022-07-29T08:22:30.953Z,32.00
2022-07-29T08:24:58.218Z,32.30
2022-07-29T08:27:42.855Z,31.80
2022-07-29T08:30:11.550Z,32.00
2022-07-29T08:32:55.418Z,31.80
2022-07-29T08:35:23.799Z,31.30
2022-07-29T08:37:51.659Z,31.30
2022-07-29T08:40:19.359Z,31.30
2022-07-29T08:42:46.686Z,31.30
2022-07-29T08:45:14.004Z,31.30
2022-07-29T08:47:41.395Z,31.20
2022-07-29T08:50:09.563Z,30.80
2022-07-29T08:52:38.251Z,30.90
2022-07-29T08:55:06.517Z,31.00
2022-07-29T08:57:33.847Z,31.20
2022-07-29T09:00:06.430Z,31.10
2022-07-29T09:02:46.818Z,31.00
2022-07-29T09:05:15.526Z,31.10
2022-07-29T09:07:44.348Z,31.30
2022-07-29T09:10:11.760Z,31.00
2022-07-29T09:12:39.331Z,31.00
2022-07-29T09:15:06.855Z,31.00
2022-07-29T09:17:40.711Z,31.20
2022-07-29T09:20:11.764Z,31.20
2022-07-29T09:22:42.094Z,31.30
2022-07-29T09:25:10.098Z,31.30
2022-07-29T09:27:37.528Z,31.60
2022-07-29T09:30:05.181Z,31.40
2022-07-29T09:32:33.297Z,31.50
2022-07-29T09:35:16.301Z,31.40
2022-07-29T09:37:44.324Z,31.40
2022-07-29T09:40:21.570Z,31.40
2022-07-29T09:42:49.040Z,31.60
2022-07-29T09:45:27.511Z,31.90
2022-07-29T09:47:55.126Z,31.80
2022-07-29T09:50:25.010Z,31.60
2022-07-29T09:52:53.108Z,31.50
2022-07-29T09:55:20.629Z,31.60
2022-07-29T09:57:48.128Z,31.40
2022-07-29T10:00:17.008Z,31.40
2022-07-29T10:02:45.223Z,31.50
2022-07-29T10:05:25.836Z,31.70
2022-07-29T10:07:54.503Z,31.80
2022-07-29T10:10:24.835Z,31.90
2022-07-29T10:12:53.626Z,31.50
2022-07-29T10:15:22.652Z,31.30
2022-07-29T10:17:50.444Z,31.60
2022-07-29T10:20:18.274Z,31.60
2022-07-29T10:22:53.417Z,31.60
2022-07-29T10:25:21.322Z,31.70
2022-07-29T10:27:49.094Z,31.80
2022-07-29T10:30:17.375Z,31.60
2022-07-29T10:32:56.060Z,30.90
2022-07-29T10:35:26.126Z,31.20
2022-07-29T10:38:16.249Z,31.80
2022-07-29T10:41:22.201Z,31.90
2022-07-29T10:43:51.336Z,32.10
2022-07-29T10:46:19.819Z,31.70
2022-07-29T10:49:05.376Z,31.60
2022-07-29T10:51:54.446Z,31.70
2022-07-29T10:54:37.162Z,31.90
2022-07-29T10:57:14.148Z,31.80
2022-07-29T10:59:42.960Z,31.90
2022-07-29T11:02:42.211Z,31.90
2022-07-29T11:05:12.083Z,32.10
2022-07-29T11:07:45.788Z,32.30
2022-07-29T11:10:13.906Z,32.50
2022-07-29T11:12:44.256Z,32.30
2022-07-29T11:15:18.440Z,32.10
2022-07-29T11:17:54.835Z,31.90
2022-07-29T11:20:51.385Z,32.00
2022-07-29T11:23:18.845Z,32.10
2022-07-29T11:25:50.644Z,31.50
2022-07-29T11:28:22.884Z,31.70
2022-07-29T11:30:53.303Z,32.20
2022-07-29T11:33:37.489Z,32.30
2022-07-29T11:36:27.972Z,32.10
2022-07-29T11:39:15.926Z,32.10
2022-07-29T11:41:45.647Z,32.10
2022-07-29T11:44:14.102Z,32.20
2022-07-29T11:46:54.130Z,32.10
2022-07-29T11:49:32.014Z,32.20
2022-07-29T11:52:02.873Z,32.20
2022-07-29T11:54:57.137Z,32.30
2022-07-29T11:57:22.162Z,32.10
2022-07-29T11:59:50.831Z,32.70
2022-07-29T12:02:37.120Z,32.70
2022-07-29T12:05:10.873Z,32.80
2022-07-29T12:07:38.991Z,32.60
2022-07-29T12:10:07.808Z,32.70
2022-07-29T12:12:39.707Z,32.90
2022-07-29T12:15:14.243Z,32.90
2022-07-29T12:17:42.929Z,32.30
2022-07-29T12:20:10.328Z,32.50
2022-07-29T12:22:42.128Z,32.50
2022-07-29T12:25:32.910Z,32.70
2022-07-29T12:28:01.476Z,33.00
2022-07-29T12:30:36.311Z,33.10
2022-07-29T12:33:11.001Z,33.00
2022-07-29T12:35:38.351Z,33.00
2022-07-29T12:38:06.211Z,32.90
2022-07-29T12:40:33.567Z,32.90
2022-07-29T12:43:07.950Z,33.10
2022-07-29T12:45:35.266Z,33.10
2022-07-29T12:48:02.718Z,32.90
2022-07-29T12:50:30.120Z,33.10
2022-07-29T12:53:08.949Z,33.10
2022-07-29T12:55:42.551Z,32.70
2022-07-29T12:58:10.274Z,32.70
2022-07-29T13:00:37.664Z,32.70
2022-07-29T13:03:05.397Z,32.80
2022-07-29T13:05:47.079Z,32.70
2022-07-29T13:08:22.058Z,32.50
2022-07-29T13:10:50.112Z,32.40
2022-07-29T13:13:17.338Z,32.40
2022-07-29T13:15:45.461Z,32.30
2022-07-29T13:18:31.146Z,32.40
2022-07-29T13:20:58.614Z,32.50
2022-07-29T13:23:25.864Z,32.50
2022-07-29T13:25:53.213Z,32.40
2022-07-29T13:28:22.600Z,32.40
2022-07-29T13:30:49.976Z,32.30
2022-07-29T13:33:17.294Z,32.30
2022-07-29T13:35:44.550Z,32.20
2022-07-29T13:38:11.837Z,32.00
2022-07-29T13:40:39.232Z,32.20
2022-07-29T13:43:06.504Z,32.30
2022-07-29T13:45:33.930Z,32.20
2022-07-29T13:48:01.594Z,32.30
2022-07-29T13:50:28.925Z,32.20
2022-07-29T13:52:56.312Z,32.40
2022-07-29T13:55:23.666Z,32.70
2022-07-29T13:57:50.991Z,32.80
2022-07-29T14:00:19.782Z,32.70
2022-07-29T14:02:47.134Z,32.60
2022-07-29T14:05:14.443Z,32.50
2022-07-29T14:07:41.680Z,32.00
2022-07-29T14:10:09.167Z,32.00
2022-07-29T14:12:36.447Z,32.10
2022-07-29T14:15:03.969Z,32.10
2022-07-29T14:17:31.291Z,32.30
2022-07-29T14:19:58.552Z,32.30
2022-07-29T14:22:26.238Z,32.40
2022-07-29T14:24:53.787Z,32.50
2022-07-29T14:27:37.570Z,32.50
2022-07-29T14:30:06.756Z,32.70
2022-07-29T14:32:33.967Z,32.80
2022-07-29T14:35:01.313Z,32.90
2022-07-29T14:37:28.625Z,33.20
2022-07-29T14:40:08.367Z,33.30
2022-07-29T14:42:35.758Z,33.30
2022-07-29T14:45:03.111Z,33.20
2022-07-29T14:47:30.735Z,33.10
2022-07-29T14:49:57.958Z,32.90
2022-07-29T14:52:25.176Z,32.60
2022-07-29T14:54:52.402Z,32.30
2022-07-29T14:57:19.790Z,32.10
2022-07-29T14:59:47.029Z,32.20
2022-07-29T15:02:14.415Z,32.10
2022-07-29T15:04:41.702Z,31.90
2022-07-29T15:07:09.410Z,31.80
2022-07-29T15:09:40.302Z,31.80
2022-07-29T15:12:17.313Z,31.60
2022-07-29T15:14:44.958Z,31.30
2022-07-29T15:17:12.282Z,31.40
2022-07-29T15:19:39.781Z,31.40
2022-07-29T15:22:12.304Z,31.20
2022-07-29T15:24:39.795Z,31.00
2022-07-29T15:27:07.078Z,30.90
2022-07-29T15:29:34.335Z,31.00
2022-07-29T15:32:02.293Z,30.80
2022-07-29T15:34:29.817Z,30.60
2022-07-29T15:36:57.778Z,30.60
2022-07-29T15:39:25.113Z,30.70
2022-07-29T15:41:52.505Z,30.50
2022-07-29T15:44:20.943Z,30.40
2022-07-29T15:47:04.112Z,30.50
2022-07-29T15:49:48.149Z,30.60
2022-07-29T15:52:18.610Z,30.40
2022-07-29T15:54:46.314Z,30.50
2022-07-29T15:57:13.709Z,30.60
2022-07-29T15:59:41.268Z,30.60
2022-07-29T16:02:08.760Z,30.50
2022-07-29T16:04:36.411Z,30.40
2022-07-29T16:07:03.977Z,30.50
2022-07-29T16:09:31.217Z,30.10
2022-07-29T16:11:58.608Z,29.70
2022-07-29T16:14:28.413Z,29.70
2022-07-29T16:16:56.778Z,29.60
2022-07-29T16:19:24.271Z,29.20
2022-07-29T16:21:51.567Z,28.70
2022-07-29T16:24:19.262Z,28.50
2022-07-29T16:26:48.858Z,28.20
2022-07-29T16:29:18.157Z,28.10
2022-07-29T16:31:45.591Z,28.00
2022-07-29T16:34:12.994Z,27.90
2022-07-29T16:36:42.693Z,27.70
2022-07-29T16:39:13.326Z,27.60
2022-07-29T16:41:40.622Z,27.50
2022-07-29T16:44:08.340Z,27.30
2022-07-29T16:46:37.454Z,27.10
2022-07-29T16:49:06.370Z,26.90
2022-07-29T16:51:33.658Z,26.70
2022-07-29T16:54:00.883Z,26.70
2022-07-29T16:56:28.139Z,26.60
2022-07-29T16:58:57.207Z,26.50
2022-07-29T17:01:24.510Z,26.60
2022-07-29T17:04:07.060Z,26.60
2022-07-29T17:06:35.259Z,26.40
2022-07-29T17:09:03.523Z,26.60
2022-07-29T17:11:53.623Z,26.50
2022-07-29T17:14:18.085Z,26.50
2022-07-29T17:16:51.664Z,26.50
2022-07-29T17:19:29.507Z,26.50
2022-07-29T17:22:04.695Z,26.50
2022-07-29T17:24:36.378Z,26.30
2022-07-29T17:27:03.734Z,26.20
2022-07-29T17:29:30.989Z,26.30
2022-07-29T17:31:59.558Z,26.30
2022-07-29T17:34:27.120Z,26.20
2022-07-29T17:36:54.387Z,26.10
2022-07-29T17:39:21.780Z,26.00
2022-07-29T17:41:49.017Z,25.90
2022-07-29T17:44:16.307Z,25.80
2022-07-29T17:46:43.656Z,25.80
2022-07-29T17:49:11.077Z,25.80
2022-07-29T17:51:38.528Z,25.70
2022-07-29T17:54:06.027Z,25.70
2022-07-29T17:56:33.394Z,25.60
2022-07-29T17:59:03.630Z,25.70
2022-07-29T18:01:30.922Z,25.70
2022-07-29T18:04:00.159Z,25.70
2022-07-29T18:06:27.675Z,25.80
2022-07-29T18:08:55.436Z,25.80
2022-07-29T18:11:23.173Z,25.80
2022-07-29T18:13:50.487Z,25.80
2022-07-29T18:16:18.369Z,25.70
2022-07-29T18:18:45.696Z,25.70
2022-07-29T18:21:13.028Z,25.70
2022-07-29T18:23:40.739Z,25.80
2022-07-29T18:26:08.025Z,25.70
2022-07-29T18:28:35.304Z,25.70
2022-07-29T18:31:02.614Z,25.60
2022-07-29T18:33:30.179Z,25.50
2022-07-29T18:36:10.527Z,25.60
2022-07-29T18:38:39.545Z,25.60
2022-07-29T18:41:06.953Z,25.50
2022-07-29T18:43:34.315Z,25.50
2022-07-29T18:46:01.702Z,25.50
2022-07-29T18:48:31.702Z,25.50
2022-07-29T18:50:58.988Z,25.50
2022-07-29T18:53:26.301Z,25.40
2022-07-29T18:55:57.323Z,25.20
2022-07-29T18:58:27.217Z,25.20
2022-07-29T19:00:54.426Z,25.20
2022-07-29T19:03:21.688Z,25.20
2022-07-29T19:05:49.594Z,25.20
2022-07-29T19:08:16.852Z,25.30
2022-07-29T19:10:44.132Z,25.20
2022-07-29T19:13:13.379Z,25.00
2022-07-29T19:15:40.965Z,24.80
2022-07-29T19:18:08.309Z,24.40
2022-07-29T19:20:35.931Z,24.10
2022-07-29T19:23:03.641Z,23.90
2022-07-29T19:25:30.984Z,23.70
2022-07-29T19:28:03.119Z,23.60
2022-07-29T19:30:30.374Z,23.60
2022-07-29T19:32:57.611Z,23.60
2022-07-29T19:35:25.273Z,23.50
2022-07-29T19:37:52.988Z,23.50
2022-07-29T19:40:20.335Z,23.50
2022-07-29T19:42:51.752Z,23.50
2022-07-29T19:45:20.082Z,23.70
2022-07-29T19:47:47.832Z,23.80
2022-07-29T19:50:15.553Z,23.70
2022-07-29T19:52:43.178Z,23.80
2022-07-29T19:55:10.916Z,23.90
2022-07-29T19:57:41.090Z,23.90
2022-07-29T20:00:11.026Z,23.90
2022-07-29T20:02:40.179Z,23.80
2022-07-29T20:05:08.237Z,23.70
2022-07-29T20:07:35.879Z,23.70
2022-07-29T20:10:03.540Z,23.60
2022-07-29T20:12:30.786Z,23.70
2022-07-29T20:14:58.873Z,23.70
2022-07-29T20:17:27.345Z,23.70
2022-07-29T20:19:54.696Z,23.60
2022-07-29T20:22:22.502Z,23.60
2022-07-29T20:24:49.690Z,23.50
2022-07-29T20:27:16.963Z,23.50
2022-07-29T20:29:44.281Z,23.50
2022-07-29T20:32:14.270Z,23.50
2022-07-29T20:34:41.598Z,23.50
2022-07-29T20:37:14.528Z,23.50
2022-07-29T20:39:47.838Z,23.50
2022-07-29T20:42:15.739Z,23.60
2022-07-29T20:44:43.347Z,23.60
2022-07-29T20:47:10.706Z,23.60
2022-07-29T20:49:37.963Z,23.70
2022-07-29T20:52:05.368Z,23.60
2022-07-29T20:54:32.641Z,23.60
2022-07-29T20:57:00.244Z,23.60
2022-07-29T20:59:27.752Z,23.40
2022-07-29T21:01:55.703Z,23.50
2022-07-29T21:04:23.022Z,23.40
2022-07-29T21:06:58.435Z,23.40
2022-07-29T21:09:25.971Z,23.50
2022-07-29T21:11:53.281Z,23.50
2022-07-29T21:14:40.807Z,23.50
2022-07-29T21:17:08.215Z,23.40
2022-07-29T21:19:35.657Z,23.40
2022-07-29T21:22:03.204Z,23.30
2022-07-29T21:24:30.456Z,23.20
2022-07-29T21:27:21.178Z,23.10
2022-07-29T21:29:49.484Z,23.00
2022-07-29T21:32:27.692Z,22.80
2022-07-29T21:34:57.787Z,22.70
2022-07-29T21:37:25.034Z,22.70
2022-07-29T21:39:52.322Z,22.60
2022-07-29T21:42:19.594Z,22.50
2022-07-29T21:44:46.912Z,22.40
2022-07-29T21:47:14.275Z,22.20
2022-07-29T21:49:41.507Z,22.20
2022-07-29T21:52:08.981Z,22.20
2022-07-29T21:57:04.582Z,22.10
2022-07-29T21:59:32.129Z,22.00
2022-07-29T22:02:01.125Z,22.00
2022-07-29T22:04:29.171Z,22.00
2022-07-29T22:06:57.175Z,22.10
2022-07-29T22:09:25.089Z,22.00
2022-07-29T22:11:52.401Z,22.00
2022-07-29T22:14:19.797Z,22.10
2022-07-29T22:16:47.735Z,22.10
2022-07-29T22:19:15.223Z,22.20
2022-07-29T22:21:42.471Z,22.20
2022-07-29T22:24:12.346Z,22.30
2022-07-29T22:26:39.593Z,22.30
2022-07-29T22:29:07.025Z,22.30
2022-07-29T22:31:34.263Z,22.30
2022-07-29T22:34:01.498Z,22.30
2022-07-29T22:36:28.813Z,22.30
2022-07-29T22:38:56.163Z,22.30
2022-07-29T22:41:23.370Z,22.20
2022-07-29T22:43:50.626Z,22.20
2022-07-29T22:46:17.919Z,22.20
2022-07-29T22:48:45.344Z,22.10
2022-07-29T22:51:12.633Z,22.10
2022-07-29T22:53:39.906Z,22.10
2022-07-29T22:56:07.386Z,22.10
2022-07-29T22:58:34.675Z,22.20
2022-07-29T23:01:02.068Z,22.10
2022-07-29T23:03:29.749Z,22.00
2022-07-29T23:05:57.028Z,22.10
2022-07-29T23:08:24.303Z,22.00
2022-07-29T23:10:51.620Z,22.00
2022-07-29T23:13:18.841Z,21.90
2022-07-29T23:15:46.107Z,21.90
2022-07-29T23:18:13.501Z,21.90
2022-07-29T23:20:40.842Z,21.90
2022-07-29T23:23:08.108Z,21.90
2022-07-29T23:25:35.614Z,21.90
2022-07-29T23:28:02.898Z,21.80
2022-07-29T23:30:30.205Z,21.80
2022-07-29T23:32:57.497Z,21.80
2022-07-29T23:35:24.739Z,21.90
2022-07-29T23:37:52.049Z,21.70
2022-07-29T23:40:19.606Z,21.70
2022-07-29T23:42:46.954Z,21.60
2022-07-29T23:45:14.187Z,21.70
2022-07-29T23:47:41.863Z,21.70
2022-07-29T23:50:12.023Z,21.60
2022-07-29T23:52:39.824Z,21.60
2022-07-29T23:55:36.332Z,21.60
2022-07-29T23:57:55.878Z,21.60
